sensor_id;sensor_type;location;lat;lon;timestamp;temperature;humidity
11083;DHT22;5595;50.186;8.468;2023-06-19T00:00:17;21.20;84.40
11083;DHT22;5595;50.186;8.468;2023-06-19T00:02:44;21.20;84.40
11083;DHT22;5595;50.186;8.468;2023-06-19T00:05:12;21.30;84.70
11083;DHT22;5595;50.186;8.468;2023-06-19T00:07:39;21.30;84.40
11083;DHT22;5595;50.186;8.468;2023-06-19T00:10:07;21.20;84.40
11083;DHT22;5595;50.186;8.468;2023-06-19T00:12:33;21.30;84.50
11083;DHT22;5595;50.186;8.468;2023-06-19T00:15:01;21.20;84.20
11083;DHT22;5595;50.186;8.468;2023-06-19T00:17:29;21.30;83.40
11083;DHT22;5595;50.186;8.468;2023-06-19T00:19:56;21.50;81.90
11083;DHT22;5595;50.186;8.468;2023-06-19T00:22:22;21.60;80.10
11083;DHT22;5595;50.186;8.468;2023-06-19T00:24:49;21.80;79.10
11083;DHT22;5595;50.186;8.468;2023-06-19T00:27:17;21.90;77.80
11083;DHT22;5595;50.186;8.468;2023-06-19T00:29:44;22.00;77.10
11083;DHT22;5595;50.186;8.468;2023-06-19T00:32:12;22.00;76.30
11083;DHT22;5595;50.186;8.468;2023-06-19T00:34:39;22.10;76.10
11083;DHT22;5595;50.186;8.468;2023-06-19T00:37:08;22.20;75.20
11083;DHT22;5595;50.186;8.468;2023-06-19T00:39:39;22.20;75.00
11083;DHT22;5595;50.186;8.468;2023-06-19T00:42:06;22.10;75.90
11083;DHT22;5595;50.186;8.468;2023-06-19T00:44:32;21.90;76.60
11083;DHT22;5595;50.186;8.468;2023-06-19T00:47:02;21.70;76.80
11083;DHT22;5595;50.186;8.468;2023-06-19T00:49:31;21.70;77.10
11083;DHT22;5595;50.186;8.468;2023-06-19T00:51:58;21.60;77.50
11083;DHT22;5595;50.186;8.468;2023-06-19T00:54:25;21.40;77.90
11083;DHT22;5595;50.186;8.468;2023-06-19T00:56:52;21.40;78.60
11083;DHT22;5595;50.186;8.468;2023-06-19T00:59:20;21.20;78.50
11083;DHT22;5595;50.186;8.468;2023-06-19T01:01:48;21.20;78.50
11083;DHT22;5595;50.186;8.468;2023-06-19T01:04:15;21.20;78.30
11083;DHT22;5595;50.186;8.468;2023-06-19T01:06:50;21.20;78.30
11083;DHT22;5595;50.186;8.468;2023-06-19T01:09:25;21.10;78.50
11083;DHT22;5595;50.186;8.468;2023-06-19T01:11:57;21.00;78.70
11083;DHT22;5595;50.186;8.468;2023-06-19T01:14:26;21.00;78.90
11083;DHT22;5595;50.186;8.468;2023-06-19T01:16:54;20.90;78.90
11083;DHT22;5595;50.186;8.468;2023-06-19T01:19:21;20.90;78.60
11083;DHT22;5595;50.186;8.468;2023-06-19T01:21:50;20.80;78.40
11083;DHT22;5595;50.186;8.468;2023-06-19T01:24:18;20.80;78.60
11083;DHT22;5595;50.186;8.468;2023-06-19T01:26:45;20.80;79.40
11083;DHT22;5595;50.186;8.468;2023-06-19T01:29:13;20.70;79.80
11083;DHT22;5595;50.186;8.468;2023-06-19T01:31:46;20.70;80.40
11083;DHT22;5595;50.186;8.468;2023-06-19T01:34:17;20.70;80.50
11083;DHT22;5595;50.186;8.468;2023-06-19T01:36:47;20.60;80.20
11083;DHT22;5595;50.186;8.468;2023-06-19T01:39:23;20.60;80.10
11083;DHT22;5595;50.186;8.468;2023-06-19T01:41:51;20.50;80.10
11083;DHT22;5595;50.186;8.468;2023-06-19T01:44:19;20.50;80.10
11083;DHT22;5595;50.186;8.468;2023-06-19T01:46:47;20.50;80.00
11083;DHT22;5595;50.186;8.468;2023-06-19T01:49:14;20.50;79.90
11083;DHT22;5595;50.186;8.468;2023-06-19T01:51:41;20.50;79.90
11083;DHT22;5595;50.186;8.468;2023-06-19T01:54:08;20.50;80.60
11083;DHT22;5595;50.186;8.468;2023-06-19T01:56:36;20.40;79.80
11083;DHT22;5595;50.186;8.468;2023-06-19T01:59:03;20.40;79.80
11083;DHT22;5595;50.186;8.468;2023-06-19T02:01:30;20.30;79.40
11083;DHT22;5595;50.186;8.468;2023-06-19T02:03:57;20.30;79.20
11083;DHT22;5595;50.186;8.468;2023-06-19T02:06:24;20.30;79.30
11083;DHT22;5595;50.186;8.468;2023-06-19T02:08:51;20.20;79.50
11083;DHT22;5595;50.186;8.468;2023-06-19T02:11:18;20.10;79.70
11083;DHT22;5595;50.186;8.468;2023-06-19T02:13:46;20.00;79.80
11083;DHT22;5595;50.186;8.468;2023-06-19T02:16:12;20.00;80.00
11083;DHT22;5595;50.186;8.468;2023-06-19T02:18:39;19.90;80.00
11083;DHT22;5595;50.186;8.468;2023-06-19T02:21:06;19.80;79.90
11083;DHT22;5595;50.186;8.468;2023-06-19T02:23:33;19.80;80.00
11083;DHT22;5595;50.186;8.468;2023-06-19T02:25:59;19.70;79.90
11083;DHT22;5595;50.186;8.468;2023-06-19T02:28:26;19.80;79.90
11083;DHT22;5595;50.186;8.468;2023-06-19T02:30:55;19.80;79.90
11083;DHT22;5595;50.186;8.468;2023-06-19T02:33:22;19.80;79.50
11083;DHT22;5595;50.186;8.468;2023-06-19T02:35:48;19.80;79.20
11083;DHT22;5595;50.186;8.468;2023-06-19T02:38:15;19.90;78.90
11083;DHT22;5595;50.186;8.468;2023-06-19T02:40:46;20.00;78.90
11083;DHT22;5595;50.186;8.468;2023-06-19T02:43:13;19.90;78.90
11083;DHT22;5595;50.186;8.468;2023-06-19T02:45:41;19.90;79.10
11083;DHT22;5595;50.186;8.468;2023-06-19T02:48:09;19.90;79.30
11083;DHT22;5595;50.186;8.468;2023-06-19T02:50:36;19.90;79.40
11083;DHT22;5595;50.186;8.468;2023-06-19T02:53:03;19.80;79.40
11083;DHT22;5595;50.186;8.468;2023-06-19T02:55:30;19.80;79.50
11083;DHT22;5595;50.186;8.468;2023-06-19T02:57:56;19.80;79.40
11083;DHT22;5595;50.186;8.468;2023-06-19T03:00:23;19.80;79.40
11083;DHT22;5595;50.186;8.468;2023-06-19T03:02:50;19.80;79.40
11083;DHT22;5595;50.186;8.468;2023-06-19T03:05:18;19.80;79.50
11083;DHT22;5595;50.186;8.468;2023-06-19T03:07:45;19.80;79.50
11083;DHT22;5595;50.186;8.468;2023-06-19T03:10:14;19.80;79.60
11083;DHT22;5595;50.186;8.468;2023-06-19T03:12:42;19.70;79.40
11083;DHT22;5595;50.186;8.468;2023-06-19T03:15:09;19.80;79.50
11083;DHT22;5595;50.186;8.468;2023-06-19T03:17:36;19.80;79.70
11083;DHT22;5595;50.186;8.468;2023-06-19T03:20:03;19.80;79.80
11083;DHT22;5595;50.186;8.468;2023-06-19T03:22:32;19.70;79.90
11083;DHT22;5595;50.186;8.468;2023-06-19T03:24:59;19.70;80.20
11083;DHT22;5595;50.186;8.468;2023-06-19T03:27:26;19.70;80.40
11083;DHT22;5595;50.186;8.468;2023-06-19T03:29:54;19.80;80.70
11083;DHT22;5595;50.186;8.468;2023-06-19T03:32:21;19.80;80.90
11083;DHT22;5595;50.186;8.468;2023-06-19T03:34:48;19.90;81.20
11083;DHT22;5595;50.186;8.468;2023-06-19T03:37:15;20.00;81.20
11083;DHT22;5595;50.186;8.468;2023-06-19T03:39:43;20.10;81.30
11083;DHT22;5595;50.186;8.468;2023-06-19T03:42:10;20.20;81.40
11083;DHT22;5595;50.186;8.468;2023-06-19T03:44:36;20.20;81.40
11083;DHT22;5595;50.186;8.468;2023-06-19T03:47:04;20.30;81.70
11083;DHT22;5595;50.186;8.468;2023-06-19T03:49:31;20.40;82.00
11083;DHT22;5595;50.186;8.468;2023-06-19T03:51:57;20.40;82.20
11083;DHT22;5595;50.186;8.468;2023-06-19T03:54:24;20.60;82.60
11083;DHT22;5595;50.186;8.468;2023-06-19T03:56:53;20.60;82.60
11083;DHT22;5595;50.186;8.468;2023-06-19T03:59:19;20.70;82.80
11083;DHT22;5595;50.186;8.468;2023-06-19T04:01:46;20.70;82.90
11083;DHT22;5595;50.186;8.468;2023-06-19T04:04:13;20.80;83.50
11083;DHT22;5595;50.186;8.468;2023-06-19T04:06:40;20.80;83.30
11083;DHT22;5595;50.186;8.468;2023-06-19T04:09:07;20.90;83.60
11083;DHT22;5595;50.186;8.468;2023-06-19T04:11:33;20.90;83.80
11083;DHT22;5595;50.186;8.468;2023-06-19T04:14:01;21.00;84.00
11083;DHT22;5595;50.186;8.468;2023-06-19T04:16:28;21.00;83.90
11083;DHT22;5595;50.186;8.468;2023-06-19T04:18:55;21.00;83.70
11083;DHT22;5595;50.186;8.468;2023-06-19T04:21:22;21.10;83.70
11083;DHT22;5595;50.186;8.468;2023-06-19T04:23:49;21.20;84.00
11083;DHT22;5595;50.186;8.468;2023-06-19T04:26:15;21.20;83.70
11083;DHT22;5595;50.186;8.468;2023-06-19T04:28:43;21.30;83.90
11083;DHT22;5595;50.186;8.468;2023-06-19T04:31:11;21.30;84.20
11083;DHT22;5595;50.186;8.468;2023-06-19T04:33:38;21.30;84.80
11083;DHT22;5595;50.186;8.468;2023-06-19T04:36:07;21.20;84.50
11083;DHT22;5595;50.186;8.468;2023-06-19T04:38:35;21.20;84.90
11083;DHT22;5595;50.186;8.468;2023-06-19T04:41:02;21.20;85.10
11083;DHT22;5595;50.186;8.468;2023-06-19T04:43:29;21.30;85.90
11083;DHT22;5595;50.186;8.468;2023-06-19T04:45:55;21.40;86.20
11083;DHT22;5595;50.186;8.468;2023-06-19T04:48:23;21.40;86.70
11083;DHT22;5595;50.186;8.468;2023-06-19T04:50:51;21.50;87.00
11083;DHT22;5595;50.186;8.468;2023-06-19T04:53:20;21.50;87.00
11083;DHT22;5595;50.186;8.468;2023-06-19T04:55:49;21.60;87.50
11083;DHT22;5595;50.186;8.468;2023-06-19T04:58:16;21.80;86.70
11083;DHT22;5595;50.186;8.468;2023-06-19T05:00:43;21.80;87.10
11083;DHT22;5595;50.186;8.468;2023-06-19T05:03:10;21.80;87.00
11083;DHT22;5595;50.186;8.468;2023-06-19T05:05:40;21.90;87.20
11083;DHT22;5595;50.186;8.468;2023-06-19T05:08:07;21.90;87.20
11083;DHT22;5595;50.186;8.468;2023-06-19T05:10:34;22.00;87.30
11083;DHT22;5595;50.186;8.468;2023-06-19T05:13:01;22.10;87.20
11083;DHT22;5595;50.186;8.468;2023-06-19T05:15:28;22.20;87.20
11083;DHT22;5595;50.186;8.468;2023-06-19T05:17:57;22.30;87.20
11083;DHT22;5595;50.186;8.468;2023-06-19T05:20:23;22.30;87.00
11083;DHT22;5595;50.186;8.468;2023-06-19T05:22:52;22.40;87.00
11083;DHT22;5595;50.186;8.468;2023-06-19T05:25:18;22.50;87.10
11083;DHT22;5595;50.186;8.468;2023-06-19T05:27:45;22.50;87.20
11083;DHT22;5595;50.186;8.468;2023-06-19T05:30:12;22.60;87.20
11083;DHT22;5595;50.186;8.468;2023-06-19T05:32:39;22.60;87.70
11083;DHT22;5595;50.186;8.468;2023-06-19T05:35:06;22.70;87.90
11083;DHT22;5595;50.186;8.468;2023-06-19T05:37:33;22.70;87.80
11083;DHT22;5595;50.186;8.468;2023-06-19T05:40:02;22.70;87.80
11083;DHT22;5595;50.186;8.468;2023-06-19T05:42:29;22.80;87.90
11083;DHT22;5595;50.186;8.468;2023-06-19T05:44:56;22.80;87.70
11083;DHT22;5595;50.186;8.468;2023-06-19T05:47:22;22.90;87.80
11083;DHT22;5595;50.186;8.468;2023-06-19T05:49:51;22.90;87.70
11083;DHT22;5595;50.186;8.468;2023-06-19T05:52:18;22.80;87.70
11083;DHT22;5595;50.186;8.468;2023-06-19T05:54:44;22.80;87.80
11083;DHT22;5595;50.186;8.468;2023-06-19T05:57:13;22.90;88.00
11083;DHT22;5595;50.186;8.468;2023-06-19T05:59:41;22.90;88.00
11083;DHT22;5595;50.186;8.468;2023-06-19T06:02:08;22.90;87.90
11083;DHT22;5595;50.186;8.468;2023-06-19T06:04:35;22.90;88.50
11083;DHT22;5595;50.186;8.468;2023-06-19T06:07:02;22.90;88.60
11083;DHT22;5595;50.186;8.468;2023-06-19T06:09:28;22.90;88.70
11083;DHT22;5595;50.186;8.468;2023-06-19T06:11:55;23.00;88.70
11083;DHT22;5595;50.186;8.468;2023-06-19T06:14:23;23.00;88.80
11083;DHT22;5595;50.186;8.468;2023-06-19T06:16:50;23.10;89.30
11083;DHT22;5595;50.186;8.468;2023-06-19T06:19:18;23.20;89.10
11083;DHT22;5595;50.186;8.468;2023-06-19T06:21:44;23.10;89.00
11083;DHT22;5595;50.186;8.468;2023-06-19T06:24:11;23.10;89.10
11083;DHT22;5595;50.186;8.468;2023-06-19T06:26:38;23.10;89.40
11083;DHT22;5595;50.186;8.468;2023-06-19T06:29:05;23.10;89.60
11083;DHT22;5595;50.186;8.468;2023-06-19T06:31:33;23.10;89.60
11083;DHT22;5595;50.186;8.468;2023-06-19T06:33:59;23.20;89.80
11083;DHT22;5595;50.186;8.468;2023-06-19T06:36:29;23.30;89.80
11083;DHT22;5595;50.186;8.468;2023-06-19T06:38:56;23.40;89.80
11083;DHT22;5595;50.186;8.468;2023-06-19T06:41:23;23.50;89.70
11083;DHT22;5595;50.186;8.468;2023-06-19T06:43:49;23.60;89.50
11083;DHT22;5595;50.186;8.468;2023-06-19T06:46:16;23.60;89.30
11083;DHT22;5595;50.186;8.468;2023-06-19T06:48:44;23.70;89.40
11083;DHT22;5595;50.186;8.468;2023-06-19T06:51:11;23.80;89.30
11083;DHT22;5595;50.186;8.468;2023-06-19T06:53:38;23.90;89.20
11083;DHT22;5595;50.186;8.468;2023-06-19T06:56:05;23.90;89.40
11083;DHT22;5595;50.186;8.468;2023-06-19T06:58:31;23.80;89.30
11083;DHT22;5595;50.186;8.468;2023-06-19T07:00:58;23.80;89.50
11083;DHT22;5595;50.186;8.468;2023-06-19T07:03:25;23.90;89.80
11083;DHT22;5595;50.186;8.468;2023-06-19T07:05:56;24.00;89.70
11083;DHT22;5595;50.186;8.468;2023-06-19T07:08:23;24.10;89.70
11083;DHT22;5595;50.186;8.468;2023-06-19T07:10:50;24.30;89.80
11083;DHT22;5595;50.186;8.468;2023-06-19T07:13:16;24.60;89.80
11083;DHT22;5595;50.186;8.468;2023-06-19T07:15:43;24.90;89.30
11083;DHT22;5595;50.186;8.468;2023-06-19T07:18:10;25.00;88.60
11083;DHT22;5595;50.186;8.468;2023-06-19T07:20:36;25.00;88.30
11083;DHT22;5595;50.186;8.468;2023-06-19T07:23:05;25.00;88.10
11083;DHT22;5595;50.186;8.468;2023-06-19T07:25:31;25.10;88.10
11083;DHT22;5595;50.186;8.468;2023-06-19T07:27:59;25.20;87.70
11083;DHT22;5595;50.186;8.468;2023-06-19T07:30:26;25.20;87.10
11083;DHT22;5595;50.186;8.468;2023-06-19T07:32:53;25.10;86.60
11083;DHT22;5595;50.186;8.468;2023-06-19T07:35:20;25.20;86.00
11083;DHT22;5595;50.186;8.468;2023-06-19T07:37:47;25.30;85.90
11083;DHT22;5595;50.186;8.468;2023-06-19T07:40:15;25.50;85.60
11083;DHT22;5595;50.186;8.468;2023-06-19T07:42:42;25.70;85.00
11083;DHT22;5595;50.186;8.468;2023-06-19T07:45:10;25.70;84.10
11083;DHT22;5595;50.186;8.468;2023-06-19T07:47:37;25.60;83.40
11083;DHT22;5595;50.186;8.468;2023-06-19T07:50:04;25.70;83.80
11083;DHT22;5595;50.186;8.468;2023-06-19T07:52:31;25.80;83.60
11083;DHT22;5595;50.186;8.468;2023-06-19T07:54:59;25.80;83.40
11083;DHT22;5595;50.186;8.468;2023-06-19T07:57:27;25.90;83.20
11083;DHT22;5595;50.186;8.468;2023-06-19T07:59:54;25.90;82.90
11083;DHT22;5595;50.186;8.468;2023-06-19T08:02:21;26.00;82.90
11083;DHT22;5595;50.186;8.468;2023-06-19T08:04:48;26.00;82.80
11083;DHT22;5595;50.186;8.468;2023-06-19T08:07:16;25.90;82.50
11083;DHT22;5595;50.186;8.468;2023-06-19T08:09:43;25.80;82.40
11083;DHT22;5595;50.186;8.468;2023-06-19T08:12:10;25.80;82.70
11083;DHT22;5595;50.186;8.468;2023-06-19T08:14:38;25.80;82.90
11083;DHT22;5595;50.186;8.468;2023-06-19T08:17:05;25.80;82.80
11083;DHT22;5595;50.186;8.468;2023-06-19T08:19:32;25.60;83.10
11083;DHT22;5595;50.186;8.468;2023-06-19T08:21:59;25.60;83.50
11083;DHT22;5595;50.186;8.468;2023-06-19T08:24:25;25.70;83.80
11083;DHT22;5595;50.186;8.468;2023-06-19T08:26:52;25.90;83.80
11083;DHT22;5595;50.186;8.468;2023-06-19T08:29:21;26.00;83.40
11083;DHT22;5595;50.186;8.468;2023-06-19T08:31:49;26.00;83.40
11083;DHT22;5595;50.186;8.468;2023-06-19T08:34:16;26.00;83.40
11083;DHT22;5595;50.186;8.468;2023-06-19T08:36:43;26.20;83.50
11083;DHT22;5595;50.186;8.468;2023-06-19T08:39:09;26.40;83.60
11083;DHT22;5595;50.186;8.468;2023-06-19T08:41:37;26.60;82.80
11083;DHT22;5595;50.186;8.468;2023-06-19T08:44:04;26.70;82.70
11083;DHT22;5595;50.186;8.468;2023-06-19T08:46:31;26.70;82.70
11083;DHT22;5595;50.186;8.468;2023-06-19T08:48:59;26.90;82.50
11083;DHT22;5595;50.186;8.468;2023-06-19T08:51:29;27.00;81.90
11083;DHT22;5595;50.186;8.468;2023-06-19T08:54:01;27.10;81.80
11083;DHT22;5595;50.186;8.468;2023-06-19T08:56:29;27.20;81.40
11083;DHT22;5595;50.186;8.468;2023-06-19T08:59:08;27.20;81.40
11083;DHT22;5595;50.186;8.468;2023-06-19T09:01:38;27.40;81.40
11083;DHT22;5595;50.186;8.468;2023-06-19T09:04:11;27.70;81.30
11083;DHT22;5595;50.186;8.468;2023-06-19T09:06:48;27.80;80.80
11083;DHT22;5595;50.186;8.468;2023-06-19T09:09:15;28.00;80.50
11083;DHT22;5595;50.186;8.468;2023-06-19T09:11:42;28.10;80.00
11083;DHT22;5595;50.186;8.468;2023-06-19T09:14:15;28.40;79.70
11083;DHT22;5595;50.186;8.468;2023-06-19T09:16:41;28.60;78.70
11083;DHT22;5595;50.186;8.468;2023-06-19T09:19:10;28.60;78.10
11083;DHT22;5595;50.186;8.468;2023-06-19T09:21:40;28.80;77.50
11083;DHT22;5595;50.186;8.468;2023-06-19T09:24:08;28.70;77.00
11083;DHT22;5595;50.186;8.468;2023-06-19T09:26:35;28.80;76.90
11083;DHT22;5595;50.186;8.468;2023-06-19T09:29:11;29.00;76.90
11083;DHT22;5595;50.186;8.468;2023-06-19T09:31:38;29.00;76.30
11083;DHT22;5595;50.186;8.468;2023-06-19T09:34:07;28.90;75.90
11083;DHT22;5595;50.186;8.468;2023-06-19T09:36:35;28.70;76.00
11083;DHT22;5595;50.186;8.468;2023-06-19T09:39:05;28.70;76.20
11083;DHT22;5595;50.186;8.468;2023-06-19T09:41:34;28.70;76.30
11083;DHT22;5595;50.186;8.468;2023-06-19T09:44:05;28.80;76.10
11083;DHT22;5595;50.186;8.468;2023-06-19T09:46:38;28.90;76.30
11083;DHT22;5595;50.186;8.468;2023-06-19T09:49:07;28.90;75.60
11083;DHT22;5595;50.186;8.468;2023-06-19T09:51:41;28.80;75.30
11083;DHT22;5595;50.186;8.468;2023-06-19T09:54:21;28.80;75.30
11083;DHT22;5595;50.186;8.468;2023-06-19T09:56:50;28.80;75.50
11083;DHT22;5595;50.186;8.468;2023-06-19T09:59:24;28.80;75.20
11083;DHT22;5595;50.186;8.468;2023-06-19T10:01:57;28.60;74.90
11083;DHT22;5595;50.186;8.468;2023-06-19T10:04:26;28.50;74.80
11083;DHT22;5595;50.186;8.468;2023-06-19T10:06:55;28.60;74.90
11083;DHT22;5595;50.186;8.468;2023-06-19T10:09:23;28.80;74.80
11083;DHT22;5595;50.186;8.468;2023-06-19T10:11:51;28.80;75.30
11083;DHT22;5595;50.186;8.468;2023-06-19T10:14:18;28.80;74.50
11083;DHT22;5595;50.186;8.468;2023-06-19T10:16:45;28.90;74.60
11083;DHT22;5595;50.186;8.468;2023-06-19T10:19:14;29.10;74.00
11083;DHT22;5595;50.186;8.468;2023-06-19T10:21:46;29.30;73.40
11083;DHT22;5595;50.186;8.468;2023-06-19T10:24:18;29.40;72.60
11083;DHT22;5595;50.186;8.468;2023-06-19T10:26:56;29.30;72.80
11083;DHT22;5595;50.186;8.468;2023-06-19T10:29:23;29.20;72.70
11083;DHT22;5595;50.186;8.468;2023-06-19T10:31:51;29.00;71.60
11083;DHT22;5595;50.186;8.468;2023-06-19T10:34:18;28.90;71.80
11083;DHT22;5595;50.186;8.468;2023-06-19T10:36:45;28.80;72.00
11083;DHT22;5595;50.186;8.468;2023-06-19T10:39:11;28.70;71.90
11083;DHT22;5595;50.186;8.468;2023-06-19T10:41:41;28.70;72.20
11083;DHT22;5595;50.186;8.468;2023-06-19T10:44:08;28.90;72.20
11083;DHT22;5595;50.186;8.468;2023-06-19T10:46:38;29.00;71.60
11083;DHT22;5595;50.186;8.468;2023-06-19T10:49:07;29.10;71.60
11083;DHT22;5595;50.186;8.468;2023-06-19T10:51:36;29.30;71.40
11083;DHT22;5595;50.186;8.468;2023-06-19T10:54:03;29.30;71.10
11083;DHT22;5595;50.186;8.468;2023-06-19T10:56:31;29.50;70.90
11083;DHT22;5595;50.186;8.468;2023-06-19T10:59:00;29.70;69.70
11083;DHT22;5595;50.186;8.468;2023-06-19T11:01:34;29.60;69.00
11083;DHT22;5595;50.186;8.468;2023-06-19T11:04:03;29.50;69.10
11083;DHT22;5595;50.186;8.468;2023-06-19T11:06:31;29.60;69.20
11083;DHT22;5595;50.186;8.468;2023-06-19T11:08:57;29.70;68.30
11083;DHT22;5595;50.186;8.468;2023-06-19T11:11:34;29.80;68.60
11083;DHT22;5595;50.186;8.468;2023-06-19T11:14:03;29.90;67.90
11083;DHT22;5595;50.186;8.468;2023-06-19T11:16:30;29.90;67.50
11083;DHT22;5595;50.186;8.468;2023-06-19T11:18:58;29.90;67.80
11083;DHT22;5595;50.186;8.468;2023-06-19T11:21:30;30.00;67.70
11083;DHT22;5595;50.186;8.468;2023-06-19T11:23:58;30.30;67.10
11083;DHT22;5595;50.186;8.468;2023-06-19T11:26:25;30.20;66.80
11083;DHT22;5595;50.186;8.468;2023-06-19T11:28:52;30.20;67.10
11083;DHT22;5595;50.186;8.468;2023-06-19T11:31:26;30.10;66.80
11083;DHT22;5595;50.186;8.468;2023-06-19T11:33:58;30.20;67.00
11083;DHT22;5595;50.186;8.468;2023-06-19T11:36:25;30.30;66.90
11083;DHT22;5595;50.186;8.468;2023-06-19T11:38:52;30.40;66.80
11083;DHT22;5595;50.186;8.468;2023-06-19T11:41:25;30.40;66.50
11083;DHT22;5595;50.186;8.468;2023-06-19T11:43:58;30.50;66.40
11083;DHT22;5595;50.186;8.468;2023-06-19T11:46:30;30.60;66.40
11083;DHT22;5595;50.186;8.468;2023-06-19T11:49:07;30.60;66.20
11083;DHT22;5595;50.186;8.468;2023-06-19T11:51:34;30.60;66.20
11083;DHT22;5595;50.186;8.468;2023-06-19T11:54:01;30.60;66.00
11083;DHT22;5595;50.186;8.468;2023-06-19T11:56:35;30.60;66.10
11083;DHT22;5595;50.186;8.468;2023-06-19T11:59:02;30.50;65.60
11083;DHT22;5595;50.186;8.468;2023-06-19T12:01:31;30.60;65.80
11083;DHT22;5595;50.186;8.468;2023-06-19T12:03:58;30.60;65.20
11083;DHT22;5595;50.186;8.468;2023-06-19T12:06:25;30.70;64.50
11083;DHT22;5595;50.186;8.468;2023-06-19T12:08:52;30.80;64.00
11083;DHT22;5595;50.186;8.468;2023-06-19T12:11:19;30.70;63.60
11083;DHT22;5595;50.186;8.468;2023-06-19T12:13:46;30.70;63.10
11083;DHT22;5595;50.186;8.468;2023-06-19T12:16:14;30.60;63.20
11083;DHT22;5595;50.186;8.468;2023-06-19T12:18:42;30.70;63.00
11083;DHT22;5595;50.186;8.468;2023-06-19T12:21:09;30.80;62.80
11083;DHT22;5595;50.186;8.468;2023-06-19T12:23:35;30.90;62.20
11083;DHT22;5595;50.186;8.468;2023-06-19T12:26:02;31.10;61.40
11083;DHT22;5595;50.186;8.468;2023-06-19T12:28:29;30.90;60.20
11083;DHT22;5595;50.186;8.468;2023-06-19T12:30:56;30.80;60.30
11083;DHT22;5595;50.186;8.468;2023-06-19T12:33:23;30.70;60.80
11083;DHT22;5595;50.186;8.468;2023-06-19T12:35:51;30.80;60.80
11083;DHT22;5595;50.186;8.468;2023-06-19T12:38:18;30.80;60.00
11083;DHT22;5595;50.186;8.468;2023-06-19T12:40:45;30.70;60.00
11083;DHT22;5595;50.186;8.468;2023-06-19T12:43:12;30.60;60.10
11083;DHT22;5595;50.186;8.468;2023-06-19T12:45:39;30.50;60.40
11083;DHT22;5595;50.186;8.468;2023-06-19T12:48:06;30.40;60.60
11083;DHT22;5595;50.186;8.468;2023-06-19T12:50:33;30.30;60.80
11083;DHT22;5595;50.186;8.468;2023-06-19T12:53:02;30.10;60.80
11083;DHT22;5595;50.186;8.468;2023-06-19T12:55:28;30.10;61.10
11083;DHT22;5595;50.186;8.468;2023-06-19T12:57:55;30.20;61.20
11083;DHT22;5595;50.186;8.468;2023-06-19T13:00:22;30.30;60.80
11083;DHT22;5595;50.186;8.468;2023-06-19T13:02:49;30.20;60.80
11083;DHT22;5595;50.186;8.468;2023-06-19T13:05:16;30.20;60.80
11083;DHT22;5595;50.186;8.468;2023-06-19T13:07:43;30.10;60.90
11083;DHT22;5595;50.186;8.468;2023-06-19T13:10:11;30.10;61.00
11083;DHT22;5595;50.186;8.468;2023-06-19T13:12:38;30.10;61.30
11083;DHT22;5595;50.186;8.468;2023-06-19T13:15:06;30.10;61.60
11083;DHT22;5595;50.186;8.468;2023-06-19T13:17:33;30.10;61.90
11083;DHT22;5595;50.186;8.468;2023-06-19T13:20:00;30.30;62.10
11083;DHT22;5595;50.186;8.468;2023-06-19T13:22:26;30.50;62.20
11083;DHT22;5595;50.186;8.468;2023-06-19T13:24:53;30.70;61.80
11083;DHT22;5595;50.186;8.468;2023-06-19T13:27:21;30.80;61.60
11083;DHT22;5595;50.186;8.468;2023-06-19T13:29:48;30.90;61.30
11083;DHT22;5595;50.186;8.468;2023-06-19T13:32:15;31.00;61.10
11083;DHT22;5595;50.186;8.468;2023-06-19T13:34:42;31.00;61.10
11083;DHT22;5595;50.186;8.468;2023-06-19T13:37:09;31.00;61.20
11083;DHT22;5595;50.186;8.468;2023-06-19T13:39:35;30.90;61.20
11083;DHT22;5595;50.186;8.468;2023-06-19T13:42:04;30.90;61.30
11083;DHT22;5595;50.186;8.468;2023-06-19T13:44:32;30.80;61.00
11083;DHT22;5595;50.186;8.468;2023-06-19T13:46:59;30.80;60.90
11083;DHT22;5595;50.186;8.468;2023-06-19T13:49:26;30.80;60.70
11083;DHT22;5595;50.186;8.468;2023-06-19T13:51:52;30.80;60.80
11083;DHT22;5595;50.186;8.468;2023-06-19T13:54:19;30.80;60.90
11083;DHT22;5595;50.186;8.468;2023-06-19T13:56:46;30.80;60.50
11083;DHT22;5595;50.186;8.468;2023-06-19T13:59:14;30.80;60.10
11083;DHT22;5595;50.186;8.468;2023-06-19T14:01:43;30.70;60.10
11083;DHT22;5595;50.186;8.468;2023-06-19T14:04:09;30.70;59.80
11083;DHT22;5595;50.186;8.468;2023-06-19T14:06:36;30.60;60.00
11083;DHT22;5595;50.186;8.468;2023-06-19T14:09:04;30.60;60.10
11083;DHT22;5595;50.186;8.468;2023-06-19T14:11:31;30.60;60.10
11083;DHT22;5595;50.186;8.468;2023-06-19T14:13:58;30.60;60.30
11083;DHT22;5595;50.186;8.468;2023-06-19T14:16:25;30.80;60.10
11083;DHT22;5595;50.186;8.468;2023-06-19T14:18:53;31.00;60.20
11083;DHT22;5595;50.186;8.468;2023-06-19T14:21:22;31.10;60.00
11083;DHT22;5595;50.186;8.468;2023-06-19T14:23:49;31.20;60.20
11083;DHT22;5595;50.186;8.468;2023-06-19T14:26:16;31.20;59.90
11083;DHT22;5595;50.186;8.468;2023-06-19T14:28:43;31.20;59.80
11083;DHT22;5595;50.186;8.468;2023-06-19T14:31:10;31.00;59.90
11083;DHT22;5595;50.186;8.468;2023-06-19T14:33:37;30.80;59.90
11083;DHT22;5595;50.186;8.468;2023-06-19T14:36:05;30.70;61.00
11083;DHT22;5595;50.186;8.468;2023-06-19T14:38:32;30.50;60.50
11083;DHT22;5595;50.186;8.468;2023-06-19T14:41:00;30.60;61.00
11083;DHT22;5595;50.186;8.468;2023-06-19T14:43:27;30.70;60.80
11083;DHT22;5595;50.186;8.468;2023-06-19T14:45:54;30.70;60.40
11083;DHT22;5595;50.186;8.468;2023-06-19T14:48:21;30.80;60.30
11083;DHT22;5595;50.186;8.468;2023-06-19T14:50:47;30.80;60.30
11083;DHT22;5595;50.186;8.468;2023-06-19T14:53:16;30.80;60.10
11083;DHT22;5595;50.186;8.468;2023-06-19T14:55:42;31.10;60.10
11083;DHT22;5595;50.186;8.468;2023-06-19T14:58:11;31.30;59.40
11083;DHT22;5595;50.186;8.468;2023-06-19T15:00:38;31.50;59.50
11083;DHT22;5595;50.186;8.468;2023-06-19T15:03:05;31.70;59.30
11083;DHT22;5595;50.186;8.468;2023-06-19T15:05:33;31.80;59.00
11083;DHT22;5595;50.186;8.468;2023-06-19T15:08:00;32.00;58.70
11083;DHT22;5595;50.186;8.468;2023-06-19T15:10:30;31.90;57.90
11083;DHT22;5595;50.186;8.468;2023-06-19T15:12:56;31.80;57.90
11083;DHT22;5595;50.186;8.468;2023-06-19T15:15:23;31.90;58.20
11083;DHT22;5595;50.186;8.468;2023-06-19T15:17:50;31.90;58.10
11083;DHT22;5595;50.186;8.468;2023-06-19T15:20:17;32.00;57.90
11083;DHT22;5595;50.186;8.468;2023-06-19T15:22:45;32.10;57.60
11083;DHT22;5595;50.186;8.468;2023-06-19T15:25:12;32.20;57.20
11083;DHT22;5595;50.186;8.468;2023-06-19T15:27:40;32.30;57.40
11083;DHT22;5595;50.186;8.468;2023-06-19T15:30:08;32.40;57.30
11083;DHT22;5595;50.186;8.468;2023-06-19T15:32:35;32.40;56.90
11083;DHT22;5595;50.186;8.468;2023-06-19T15:35:02;32.40;56.30
11083;DHT22;5595;50.186;8.468;2023-06-19T15:37:29;32.10;55.30
11083;DHT22;5595;50.186;8.468;2023-06-19T15:39:56;31.80;55.90
11083;DHT22;5595;50.186;8.468;2023-06-19T15:42:22;31.80;56.30
11083;DHT22;5595;50.186;8.468;2023-06-19T15:44:51;31.90;56.10
11083;DHT22;5595;50.186;8.468;2023-06-19T15:47:18;31.90;56.00